Stinson Beach, CA (94970)

10:55 AM PDT am 20. Oktober 2014 (GMT -0700)
Blithedale Canyon | Change Station
CLOSE
Current Station
Persönliche Wetterstationen
Location: Mill Valley, CA
Höhe: 190 ft
Wetterstationen in der Umgebung
aktive Warnung: Beach Hazard Statement

Höhe 190 ft 37.91 °N, 122.55 °W | Updated 43 seconds ago

Bedeckt
Bedeckt
63.9 °F
gefühlte 63.9 °F
N
1.0
Wind Wechselnd Wind aus Süd-Südost
Gusts 3.0 mph

Heute
Max. -- | schwach -- °F
--% Regenrisiko
Gestern
Max. -- | schwach -- °F
Precip. -- inch
7:24 AM 6:26 PM
Letztes Viertel, 10% visible
Druck 29.99 inch
Sichtweite 7.0 Meilen
Wolken Few 1400 ft
Teils Wolkig 1900 ft
Wolkig 4100 ft
Taupunkt 62 °F
Feuchtigkeit 93%
Regen 0.04 inch
Schneehöhe Nicht verfügbar..
UV 2 von 12
Pollen 1.80 von 12
Luftqualität Nicht verfügbar..
Flu Activity Sporadic
METAR KO69 201735Z AUTO 28007KT 7SM FEW014 SCT019 BKN041 17/15 A2999 RMK AO1

More Conditions Fewer Conditions

Druck 29.99 inch
Sichtweite 7.0 Meilen
Wolken Few 1400 ft
Teils Wolkig 1900 ft
Wolkig 4100 ft
Taupunkt 62 °F
Feuchtigkeit 93%
Regen 0.04 inch
Schneehöhe Nicht verfügbar..
UV 2 von 12
Pollen 1.80 von 12
Luftqualität Nicht verfügbar..
Flu Activity Sporadic
METAR KO69 201735Z AUTO 28007KT 7SM FEW014 SCT019 BKN041 17/15 A2999 RMK AO1

More Conditions Fewer Conditions

10-Day Weather Forecast

Almanac

Astronomie

Oct. 20, 2014 Aufgang Untergang
Genaue Zeit 07:24 PDT 18:26 PDT
Bürgerliche Dämmerung 06:57 PDT 18:52 PDT
Nautische Dämmerung 06:26 PDT 19:23 PDT
Astronomische Dämmerung 05:56 PDT 19:53 PDT
Mond 04:20 PDT 16:49 PDT
Länge des sichtbaren Lichts 11h 55m
Tageslänge
11h 02m
Letztes Viertel, 10% of the Moon is Illuminated
Heute
Letztes Viertel
Okt 23
Neu
Okt 30
Erstes Viertel
Nov 6
Vollmond
Nov 14
Letztes Viertel

Heutige Rekorde

State Highs State Lows

Community

WunderPhotos

Upload Photos

1,763,446 Fotos hochgeladen!

WunderBlogs® & News

Nearby

Schneehöhe

Station Depth Höhe
Forestdale Creek 0 in 8029 ft
Blue Lakes 0 in 8000 ft
Rubicon #2 0 in 7500 ft
CSS Lab 0 in 6900 ft
Burnside Lake 0 in 8139 ft

Erdbebenaktivität

Stadt Distance Mag. Time & Date
Cobb, California 65 Meilen 2.5 21:25 PDT
2014-10-19
Soledad, California 125 Meilen 2.6 15:21 PDT
2014-10-18
East Foothills, California 61 Meilen 2.6 08:16 PDT
2014-10-18
Minimum magnitude displayed is 2.5.

küstennahe Wassertemperaturen

Ort Temperatur
Point Reyes, CA 60.1 °F
San Francisco, CA 62.1 °F
Richmond, CA 64.0 °F

Wetterstationen in der Umgebung